Time;durP1;ratioP1;P1;durP2;ratioP2;P2;SDS_P1;SDS_P2;PMS_P1;PMS_P2;Temp;Humidity;BMP_temperature;BMP_pressure;BME280_temperature;BME280_humidity;BME280_pressure;Samples;Min_cycle;Max_cycle;Signal;HPM_P1;HPM_P2
2021/03/26 17:02:22;;;;;;;25.65;10.95;;;;;;;9.77;62.04;101581.56;6385050;27;20688;-73
2021/03/26 17:05:53;;;;;;;24.33;10.98;;;;;;;9.58;62.59;101587.63;6359735;28;20209;-73
2021/03/26 17:09:30;;;;;;;19.02;11.55;;;;;;;9.38;63.42;101578.38;6359389;28;20228;-74
2021/03/26 17:13:31;;;;;;;25.55;11.80;;;;;;;9.27;63.85;101590.59;6332323;28;20251;-75
2021/03/26 17:16:52;;;;;;;26.00;11.88;;;;;;;9.32;63.89;101576.44;6358091;28;20437;-74
2021/03/26 17:20:43;;;;;;;32.50;11.85;;;;;;;9.17;64.12;101581.03;6359134;28;20283;-73
2021/03/26 17:24:36;;;;;;;21.60;11.48;;;;;;;9.26;63.74;101582.63;6358075;28;20434;-73
2021/03/26 17:28:06;;;;;;;25.85;11.63;;;;;;;8.97;65.15;101588.09;6359082;28;20182;-74
2021/03/26 17:31:44;;;;;;;21.63;11.25;;;;;;;8.99;65.50;101575.97;6359074;28;20186;-75
2021/03/26 17:35:00;;;;;;;22.17;12.05;;;;;;;9.03;65.03;101584.63;6357649;28;20493;-75
2021/03/26 17:38:24;;;;;;;23.13;11.85;;;;;;;9.14;65.21;101578.72;6340988;28;20183;-75
2021/03/26 17:41:46;;;;;;;24.13;11.60;;;;;;;9.24;64.42;101582.00;6358082;28;20210;-76
2021/03/26 17:45:02;;;;;;;27.23;12.75;;;;;;;9.24;64.68;101582.84;6357358;28;20489;-77
2021/03/26 17:48:16;;;;;;;29.67;12.45;;;;;;;9.16;64.82;101582.09;6359579;28;20182;-77
2021/03/26 17:51:32;;;;;;;27.38;11.65;;;;;;;9.19;64.75;101576.28;6286234;28;20244;-73
2021/03/26 17:55:02;;;;;;;26.60;12.52;;;;;;;9.05;65.54;101574.41;6283552;28;20189;-75
2021/03/26 17:58:35;;;;;;;32.20;13.23;;;;;;;8.64;66.54;101572.16;6282857;28;20192;-75
2021/03/26 18:01:56;;;;;;;30.02;12.05;;;;;;;8.61;67.07;101586.13;6305073;28;20230;-74
2021/03/26 18:05:06;;;;;;;33.70;13.40;;;;;;;8.58;67.22;101582.91;6288584;28;20285;-72
2021/03/26 18:08:29;;;;;;;25.13;12.85;;;;;;;8.63;67.38;101580.47;6307112;28;20184;-73
2021/03/26 18:11:42;;;;;;;29.67;12.45;;;;;;;8.80;66.97;101582.88;6282788;28;20235;-73
2021/03/26 18:14:54;;;;;;;36.88;13.02;;;;;;;8.71;67.50;101583.97;6291018;28;20216;-73
2021/03/26 18:18:11;;;;;;;27.40;13.15;;;;;;;8.92;66.39;101590.53;6290994;28;20310;-73
2021/03/26 18:21:30;;;;;;;26.23;12.35;;;;;;;8.99;66.28;101596.94;6290963;28;20254;-74
2021/03/26 18:25:05;;;;;;;31.45;12.60;;;;;;;8.74;67.43;101586.31;6290815;28;20252;-74
2021/03/26 18:28:39;;;;;;;30.52;13.00;;;;;;;8.74;67.56;101593.63;6289558;28;20538;-74
2021/03/26 18:32:17;;;;;;;24.92;12.40;;;;;;;8.68;67.79;101583.50;6290412;28;20192;-75
2021/03/26 18:35:45;;;;;;;32.28;13.15;;;;;;;8.45;69.05;101588.19;6290318;28;20215;-76
2021/03/26 18:39:20;;;;;;;37.75;13.23;;;;;;;8.50;68.92;101602.88;6289616;28;20185;-75
2021/03/26 18:42:54;;;;;;;26.92;13.52;;;;;;;8.55;68.94;101584.13;6291019;28;20190;-76
2021/03/26 18:46:29;;;;;;;39.10;14.48;;;;;;;8.29;69.36;101562.00;6246730;28;20200;-74
2021/03/26 18:49:46;;;;;;;25.88;12.60;;;;;;;8.42;69.64;101578.53;6290220;28;20216;-74
2021/03/26 18:52:58;;;;;;;30.23;13.43;;;;;;;8.47;69.10;101581.53;6289888;28;20188;-75
2021/03/26 18:56:12;;;;;;;30.38;14.40;;;;;;;8.51;69.25;101582.84;6290204;28;20184;-74
2021/03/26 18:59:42;;;;;;;34.15;14.48;;;;;;;8.36;70.00;101590.13;6289303;28;20243;-72
2021/03/26 19:03:18;;;;;;;28.60;14.68;;;;;;;8.05;71.25;101586.63;6289398;28;20189;-73
2021/03/26 19:06:29;;;;;;;30.00;15.65;;;;;;;7.83;72.74;101595.66;6263764;28;20200;-73
2021/03/26 19:10:03;;;;;;;34.05;15.40;;;;;;;7.94;72.51;101590.63;6289530;28;20184;-75
2021/03/26 19:13:42;;;;;;;37.42;16.65;;;;;;;7.84;72.77;101589.16;6289514;28;20267;-74
2021/03/26 19:16:53;;;;;;;34.22;16.27;;;;;;;7.91;72.20;101582.00;6289496;28;20207;-75
2021/03/26 19:20:07;;;;;;;29.45;15.18;;;;;;;7.77;73.31;101590.91;6289514;28;20247;-73
2021/03/26 19:23:25;;;;;;;26.77;15.97;;;;;;;7.72;73.69;101587.91;6286865;28;20405;-73
2021/03/26 19:26:32;;;;;;;31.67;16.67;;;;;;;7.54;74.13;101586.31;6289011;28;20191;-74
2021/03/26 19:29:42;;;;;;;33.25;17.70;;;;;;;7.63;74.26;101580.84;6288774;28;20184;-74
2021/03/26 19:32:59;;;;;;;30.85;17.20;;;;;;;7.71;73.88;101588.91;6289112;28;20255;-73
2021/03/26 19:36:15;;;;;;;37.00;16.00;;;;;;;7.86;73.31;101582.53;6289431;28;20184;-74
2021/03/26 19:39:28;;;;;;;29.02;15.50;;;;;;;7.88;72.99;101587.78;6286861;28;20303;-75
2021/03/26 19:42:36;;;;;;;31.83;16.77;;;;;;;7.96;72.48;101582.31;6270740;28;20432;-76
2021/03/26 19:45:43;;;;;;;33.17;16.37;;;;;;;8.02;72.29;101576.13;6288523;28;20204;-75
2021/03/26 19:49:01;;;;;;;43.22;17.65;;;;;;;8.02;72.36;101596.00;6289421;28;20195;-75
2021/03/26 19:52:17;;;;;;;34.17;16.83;;;;;;;7.96;72.39;101582.31;6288850;28;20191;-75
2021/03/26 19:55:30;;;;;;;39.40;17.57;;;;;;;8.03;72.12;101588.69;6288712;28;20192;-76
2021/03/26 19:58:48;;;;;;;36.47;17.03;;;;;;;7.80;73.20;101576.97;6287395;28;20479;-76
2021/03/26 20:01:54;;;;;;;40.00;17.33;;;;;;;7.72;73.15;101585.19;6287452;28;20243;-75
2021/03/26 20:05:00;;;;;;;112.50;53.85;;;;;;;7.78;73.42;101584.47;6288022;28;20188;-75
2021/03/26 20:08:21;;;;;;;51.87;26.83;;;;;;;7.79;73.20;101575.28;6286922;28;20431;-77
2021/03/26 20:11:45;;;;;;;38.87;18.43;;;;;;;7.72;73.03;101574.31;6288122;28;20266;-74
2021/03/26 20:15:16;;;;;;;39.77;17.77;;;;;;;7.75;73.15;101577.53;6287267;28;20184;-73
2021/03/26 20:18:47;;;;;;;34.53;17.00;;;;;;;7.70;73.38;101570.94;6286885;28;20185;-75
2021/03/26 20:22:10;;;;;;;37.20;17.03;;;;;;;7.62;73.87;101574.56;6288007;28;20283;-75
2021/03/26 20:25:43;;;;;;;42.23;18.77;;;;;;;7.41;74.01;101528.19;6286613;28;20423;-74
2021/03/26 20:29:07;;;;;;;35.20;16.10;;;;;;;7.11;75.58;101559.75;6288004;28;20188;-72
2021/03/26 20:32:39;;;;;;;34.50;17.50;;;;;;;7.11;76.37;101562.47;6269310;28;20533;-73
2021/03/26 20:35:52;;;;;;;38.73;17.93;;;;;;;7.09;76.55;101561.78;6287292;28;20261;-74
2021/03/26 20:39:12;;;;;;;41.53;18.33;;;;;;;7.15;76.48;101561.09;6287468;28;20195;-73
2021/03/26 20:42:31;;;;;;;37.07;18.30;;;;;;;7.06;77.06;101555.88;6286285;28;20514;-73
2021/03/26 20:45:47;;;;;;;44.23;18.40;;;;;;;6.99;77.50;101552.16;6286400;28;20228;-73
2021/03/26 20:49:07;;;;;;;35.33;17.70;;;;;;;7.08;77.21;101541.13;6287226;28;20187;-73
2021/03/26 20:52:22;;;;;;;39.03;18.90;;;;;;;7.04;76.99;101542.47;6286605;28;20199;-73
2021/03/26 20:55:37;;;;;;;83.83;46.10;;;;;;;7.03;77.50;101546.22;6269775;28;20226;-73
2021/03/26 20:58:50;;;;;;;64.60;30.00;;;;;;;6.94;77.93;101547.28;6286913;28;20478;-73
2021/03/26 21:02:00;;;;;;;36.30;18.63;;;;;;;6.91;78.32;101539.47;6261437;28;20228;-73
2021/03/26 21:05:14;;;;;;;38.70;18.83;;;;;;;6.87;78.10;101530.03;6260734;28;20382;-73
2021/03/26 21:08:42;;;;;;;39.47;18.73;;;;;;;6.79;78.71;101532.75;6261228;28;20502;-73
2021/03/26 21:11:57;;;;;;;39.57;19.20;;;;;;;6.86;77.86;101529.16;6262095;28;20193;-74
2021/03/26 21:15:15;;;;;;;43.97;20.00;;;;;;;6.83;78.03;101518.66;6261171;28;20192;-74
2021/03/26 21:18:48;;;;;;;41.07;19.37;;;;;;;6.83;78.50;101539.53;6260209;28;20192;-73
2021/03/26 21:22:08;;;;;;;40.30;20.03;;;;;;;6.67;79.30;101562.13;6261066;28;20443;-73
2021/03/26 21:25:28;;;;;;;47.83;21.07;;;;;;;6.21;81.43;101558.31;6262108;28;20188;-73
2021/03/26 21:28:47;;;;;;;40.80;20.73;;;;;;;6.35;81.29;101550.50;6262475;28;20189;-73
2021/03/26 21:32:03;;;;;;;40.17;20.20;;;;;;;6.52;80.41;101561.16;6262162;28;20189;-73
2021/03/26 21:35:13;;;;;;;44.93;20.37;;;;;;;6.52;80.38;101557.59;6261120;28;20494;-74
2021/03/26 21:38:25;;;;;;;49.10;20.23;;;;;;;6.51;80.61;101555.91;6262026;28;20188;-73
2021/03/26 21:41:32;;;;;;;39.77;19.97;;;;;;;6.55;80.01;101535.56;6260957;28;20489;-73
2021/03/26 21:44:54;;;;;;;47.10;22.00;;;;;;;6.38;81.30;101529.34;6261283;28;20223;-73
2021/03/26 21:48:10;;;;;;;43.43;20.23;;;;;;;6.38;81.06;101531.19;6265299;28;20189;-73
2021/03/26 21:51:31;;;;;;;46.03;21.23;;;;;;;6.54;80.54;101528.44;6281626;28;20193;-73
2021/03/26 21:54:46;;;;;;;46.23;21.00;;;;;;;6.42;80.57;101529.84;6266521;28;20188;-73
2021/03/26 21:57:54;;;;;;;45.63;21.40;;;;;;;6.56;80.18;101526.41;6266818;28;20188;-73
2021/03/26 22:01:07;;;;;;;46.90;21.53;;;;;;;6.52;80.39;101525.94;6282824;28;20250;-73
2021/03/26 22:04:27;;;;;;;50.83;21.43;;;;;;;6.40;81.38;101531.84;6289983;28;20479;-74
2021/03/26 22:07:54;;;;;;;47.50;21.27;;;;;;;6.35;80.96;101523.41;6272902;28;20375;-74
2021/03/26 22:11:00;;;;;;;46.47;21.73;;;;;;;6.42;80.95;101519.00;6272932;28;20261;-73
2021/03/26 22:14:08;;;;;;;43.13;20.27;;;;;;;6.40;80.72;101526.44;6291252;28;20187;-74
2021/03/26 22:17:24;;;;;;;51.63;22.30;;;;;;;6.28;81.66;101528.69;6274282;28;20188;-73
2021/03/26 22:20:41;;;;;;;49.77;22.13;;;;;;;6.22;81.75;101538.34;6289583;28;20471;-73
2021/03/26 22:23:46;;;;;;;44.40;21.20;;;;;;;5.98;82.79;101532.97;6291033;28;20192;-74
2021/03/26 22:26:52;;;;;;;50.77;23.03;;;;;;;5.82;83.81;101532.94;6291135;28;20237;-74
2021/03/26 22:30:06;;;;;;;50.43;22.60;;;;;;;5.90;84.47;101530.25;6289909;28;20187;-73
2021/03/26 22:33:25;;;;;;;46.83;22.57;;;;;;;6.17;83.17;101532.59;6289876;28;20223;-74
2021/03/26 22:36:40;;;;;;;48.33;22.20;;;;;;;6.25;82.41;101524.44;6290484;28;20193;-74
2021/03/26 22:39:49;;;;;;;50.67;22.87;;;;;;;6.22;82.44;101519.38;6290303;28;20265;-73
2021/03/26 22:42:56;;;;;;;50.10;22.90;;;;;;;6.35;81.82;101523.41;6290556;28;20211;-73
2021/03/26 22:46:06;;;;;;;44.70;21.70;;;;;;;6.32;82.14;101520.03;6290246;28;20192;-74
2021/03/26 22:49:16;;;;;;;47.03;22.97;;;;;;;6.18;81.91;101507.19;6289152;28;20376;-74
2021/03/26 22:52:46;;;;;;;51.97;22.30;;;;;;;6.25;82.51;101518.19;6289032;28;20561;-74
2021/03/26 22:55:57;;;;;;;45.80;21.63;;;;;;;6.35;82.38;101517.97;6288935;28;20304;-73
2021/03/26 22:59:13;;;;;;;48.90;21.97;;;;;;;6.14;83.37;101524.81;6270746;28;20408;-73
2021/03/26 23:02:20;;;;;;;44.63;21.93;;;;;;;6.04;83.59;101515.16;6289909;28;20239;-73
2021/03/26 23:05:42;;;;;;;50.73;24.20;;;;;;;6.21;83.02;101520.38;6274828;28;20188;-74
2021/03/26 23:08:59;;;;;;;47.07;21.77;;;;;;;6.19;83.36;101519.72;6289696;28;20225;-73
2021/03/26 23:12:09;;;;;;;51.43;22.57;;;;;;;6.13;83.35;101515.00;6288558;28;20363;-74
2021/03/26 23:15:25;;;;;;;46.90;22.57;;;;;;;6.04;83.58;101510.59;6288421;28;20188;-74
2021/03/26 23:18:43;;;;;;;50.23;22.20;;;;;;;5.96;84.39;101502.47;6289808;28;20188;-74
2021/03/26 23:21:51;;;;;;;49.67;22.60;;;;;;;5.86;84.95;101512.63;6289290;28;20221;-73
2021/03/26 23:25:05;;;;;;;51.70;22.60;;;;;;;5.95;84.92;101514.34;6271200;28;20418;-73
2021/03/26 23:28:17;;;;;;;50.50;23.77;;;;;;;5.86;85.29;101495.53;6288211;28;20533;-73
2021/03/26 23:31:29;;;;;;;49.50;22.87;;;;;;;6.02;85.00;101509.94;6288188;28;20493;-73
2021/03/26 23:34:42;;;;;;;49.63;22.60;;;;;;;6.16;83.96;101514.63;6289334;28;20191;-73
2021/03/26 23:37:52;;;;;;;49.37;22.33;;;;;;;6.34;82.93;101509.03;6289261;28;20290;-73
2021/03/26 23:41:00;;;;;;;46.53;21.63;;;;;;;6.43;82.42;101510.69;6270350;28;20203;-74
2021/03/26 23:44:07;;;;;;;48.87;22.67;;;;;;;6.37;82.42;101510.53;6287982;28;20193;-74
2021/03/26 23:47:15;;;;;;;52.20;22.57;;;;;;;6.40;82.54;101512.88;6287628;28;20230;-74
2021/03/26 23:50:28;;;;;;;47.73;22.93;;;;;;;6.36;83.06;101504.28;6288306;28;20195;-73
2021/03/26 23:53:38;;;;;;;47.63;22.70;;;;;;;6.42;82.53;101502.75;6287428;28;20478;-72
2021/03/26 23:56:51;;;;;;;47.40;22.20;;;;;;;6.32;82.71;101507.50;6288845;28;20190;-73
2021/03/26 23:59:58;;;;;;;48.70;22.53;;;;;;;6.42;82.59;101486.47;6269960;28;20231;-73
